sensor_id;sensor_type;location;lat;lon;timestamp;P1;durP1;ratioP1;P2;durP2;ratioP2
73684;SDS011;61985;51.070;14.064;2022-10-16T00:00:29;19.58;;;13.10;;
73684;SDS011;61985;51.070;14.064;2022-10-16T00:02:55;19.63;;;12.70;;
73684;SDS011;61985;51.070;14.064;2022-10-16T00:05:20;17.60;;;11.63;;
73684;SDS011;61985;51.070;14.064;2022-10-16T00:07:46;17.90;;;12.35;;
73684;SDS011;61985;51.070;14.064;2022-10-16T00:10:11;19.55;;;12.38;;
73684;SDS011;61985;51.070;14.064;2022-10-16T00:12:36;18.85;;;12.07;;
73684;SDS011;61985;51.070;14.064;2022-10-16T00:15:02;23.33;;;12.30;;
73684;SDS011;61985;51.070;14.064;2022-10-16T00:17:27;17.52;;;11.90;;
73684;SDS011;61985;51.070;14.064;2022-10-16T00:19:54;17.70;;;12.13;;
73684;SDS011;61985;51.070;14.064;2022-10-16T00:22:20;17.23;;;11.95;;
73684;SDS011;61985;51.070;14.064;2022-10-16T00:24:45;19.58;;;13.32;;
73684;SDS011;61985;51.070;14.064;2022-10-16T00:27:10;20.58;;;14.00;;
73684;SDS011;61985;51.070;14.064;2022-10-16T00:29:36;20.60;;;12.02;;
73684;SDS011;61985;51.070;14.064;2022-10-16T00:32:01;18.45;;;12.77;;
73684;SDS011;61985;51.070;14.064;2022-10-16T00:34:26;19.77;;;13.35;;
73684;SDS011;61985;51.070;14.064;2022-10-16T00:36:52;19.98;;;13.00;;
73684;SDS011;61985;51.070;14.064;2022-10-16T00:39:17;19.00;;;12.75;;
73684;SDS011;61985;51.070;14.064;2022-10-16T00:41:43;16.58;;;11.27;;
73684;SDS011;61985;51.070;14.064;2022-10-16T00:47:12;16.50;;;11.50;;
73684;SDS011;61985;51.070;14.064;2022-10-16T00:49:42;19.27;;;11.67;;
73684;SDS011;61985;51.070;14.064;2022-10-16T00:52:08;19.02;;;12.63;;
73684;SDS011;61985;51.070;14.064;2022-10-16T00:54:34;18.77;;;12.30;;
73684;SDS011;61985;51.070;14.064;2022-10-16T00:57:01;17.77;;;12.05;;
73684;SDS011;61985;51.070;14.064;2022-10-16T00:59:30;18.02;;;11.77;;
73684;SDS011;61985;51.070;14.064;2022-10-16T01:01:56;18.75;;;12.30;;
73684;SDS011;61985;51.070;14.064;2022-10-16T01:04:23;20.58;;;12.73;;
73684;SDS011;61985;51.070;14.064;2022-10-16T01:09:28;18.60;;;11.98;;
73684;SDS011;61985;51.070;14.064;2022-10-16T01:12:14;21.08;;;13.55;;
73684;SDS011;61985;51.070;14.064;2022-10-16T01:14:58;21.50;;;14.77;;
73684;SDS011;61985;51.070;14.064;2022-10-16T01:17:40;23.33;;;14.60;;
73684;SDS011;61985;51.070;14.064;2022-10-16T01:20:12;24.75;;;14.65;;
73684;SDS011;61985;51.070;14.064;2022-10-16T01:29:03;21.95;;;14.52;;
73684;SDS011;61985;51.070;14.064;2022-10-16T01:31:41;23.85;;;15.25;;
73684;SDS011;61985;51.070;14.064;2022-10-16T01:34:16;21.63;;;15.48;;
73684;SDS011;61985;51.070;14.064;2022-10-16T01:36:49;21.92;;;15.07;;
73684;SDS011;61985;51.070;14.064;2022-10-16T01:39:19;23.75;;;14.32;;
73684;SDS011;61985;51.070;14.064;2022-10-16T01:41:53;21.13;;;14.45;;
73684;SDS011;61985;51.070;14.064;2022-10-16T01:44:28;23.88;;;15.82;;
73684;SDS011;61985;51.070;14.064;2022-10-16T01:46:56;19.70;;;14.07;;
73684;SDS011;61985;51.070;14.064;2022-10-16T01:49:23;24.45;;;15.50;;
73684;SDS011;61985;51.070;14.064;2022-10-16T01:51:54;19.90;;;13.02;;
73684;SDS011;61985;51.070;14.064;2022-10-16T01:54:21;22.55;;;15.23;;
73684;SDS011;61985;51.070;14.064;2022-10-16T01:56:51;23.73;;;14.35;;
73684;SDS011;61985;51.070;14.064;2022-10-16T01:59:21;20.45;;;13.85;;
73684;SDS011;61985;51.070;14.064;2022-10-16T02:01:50;25.80;;;15.52;;
73684;SDS011;61985;51.070;14.064;2022-10-16T02:04:23;20.65;;;13.90;;
73684;SDS011;61985;51.070;14.064;2022-10-16T02:06:53;18.85;;;14.48;;
73684;SDS011;61985;51.070;14.064;2022-10-16T02:09:18;18.30;;;13.32;;
73684;SDS011;61985;51.070;14.064;2022-10-16T02:11:44;20.92;;;13.00;;
73684;SDS011;61985;51.070;14.064;2022-10-16T02:14:10;19.50;;;13.07;;
73684;SDS011;61985;51.070;14.064;2022-10-16T02:16:38;20.65;;;14.18;;
73684;SDS011;61985;51.070;14.064;2022-10-16T02:19:05;19.33;;;13.38;;
73684;SDS011;61985;51.070;14.064;2022-10-16T02:27:05;21.83;;;13.50;;
73684;SDS011;61985;51.070;14.064;2022-10-16T02:29:50;18.20;;;12.32;;
73684;SDS011;61985;51.070;14.064;2022-10-16T02:32:23;18.75;;;13.15;;
73684;SDS011;61985;51.070;14.064;2022-10-16T02:34:52;19.08;;;12.80;;
73684;SDS011;61985;51.070;14.064;2022-10-16T02:37:18;17.58;;;12.32;;
73684;SDS011;61985;51.070;14.064;2022-10-16T02:39:44;19.80;;;13.25;;
73684;SDS011;61985;51.070;14.064;2022-10-16T02:42:11;19.95;;;13.38;;
73684;SDS011;61985;51.070;14.064;2022-10-16T02:44:37;17.80;;;12.75;;
73684;SDS011;61985;51.070;14.064;2022-10-16T02:47:03;18.67;;;13.40;;
73684;SDS011;61985;51.070;14.064;2022-10-16T02:49:28;20.15;;;13.63;;
73684;SDS011;61985;51.070;14.064;2022-10-16T02:51:54;17.52;;;12.90;;
73684;SDS011;61985;51.070;14.064;2022-10-16T02:54:19;18.83;;;12.77;;
73684;SDS011;61985;51.070;14.064;2022-10-16T02:56:45;21.17;;;13.38;;
73684;SDS011;61985;51.070;14.064;2022-10-16T02:59:10;19.25;;;13.27;;
73684;SDS011;61985;51.070;14.064;2022-10-16T03:01:35;19.90;;;12.70;;
73684;SDS011;61985;51.070;14.064;2022-10-16T03:04:01;17.45;;;12.18;;
73684;SDS011;61985;51.070;14.064;2022-10-16T03:06:26;18.98;;;12.07;;
73684;SDS011;61985;51.070;14.064;2022-10-16T03:08:51;16.48;;;11.98;;
73684;SDS011;61985;51.070;14.064;2022-10-16T03:11:17;17.75;;;12.48;;
73684;SDS011;61985;51.070;14.064;2022-10-16T03:13:42;17.85;;;12.63;;
73684;SDS011;61985;51.070;14.064;2022-10-16T03:16:07;16.30;;;11.88;;
73684;SDS011;61985;51.070;14.064;2022-10-16T03:18:33;16.67;;;12.63;;
73684;SDS011;61985;51.070;14.064;2022-10-16T03:20:58;18.55;;;11.30;;
73684;SDS011;61985;51.070;14.064;2022-10-16T03:23:24;18.75;;;12.52;;
73684;SDS011;61985;51.070;14.064;2022-10-16T03:25:49;17.33;;;11.93;;
73684;SDS011;61985;51.070;14.064;2022-10-16T03:28:14;18.80;;;12.30;;
73684;SDS011;61985;51.070;14.064;2022-10-16T03:30:40;17.48;;;12.25;;
73684;SDS011;61985;51.070;14.064;2022-10-16T03:33:05;18.23;;;12.55;;
73684;SDS011;61985;51.070;14.064;2022-10-16T03:35:31;18.40;;;12.60;;
73684;SDS011;61985;51.070;14.064;2022-10-16T03:37:57;16.98;;;11.65;;
73684;SDS011;61985;51.070;14.064;2022-10-16T03:40:23;17.50;;;12.40;;
73684;SDS011;61985;51.070;14.064;2022-10-16T03:42:48;17.88;;;12.43;;
73684;SDS011;61985;51.070;14.064;2022-10-16T03:45:13;17.02;;;12.10;;
73684;SDS011;61985;51.070;14.064;2022-10-16T03:47:39;15.30;;;12.00;;
73684;SDS011;61985;51.070;14.064;2022-10-16T03:50:04;19.25;;;12.13;;
73684;SDS011;61985;51.070;14.064;2022-10-16T03:52:30;17.45;;;11.77;;
73684;SDS011;61985;51.070;14.064;2022-10-16T03:54:57;15.88;;;10.82;;
73684;SDS011;61985;51.070;14.064;2022-10-16T03:57:22;14.50;;;10.93;;
73684;SDS011;61985;51.070;14.064;2022-10-16T03:59:48;16.92;;;10.57;;
73684;SDS011;61985;51.070;14.064;2022-10-16T04:02:13;15.27;;;11.35;;
73684;SDS011;61985;51.070;14.064;2022-10-16T04:04:38;15.95;;;10.50;;
73684;SDS011;61985;51.070;14.064;2022-10-16T04:07:04;15.45;;;11.23;;
73684;SDS011;61985;51.070;14.064;2022-10-16T04:09:29;16.80;;;10.98;;
73684;SDS011;61985;51.070;14.064;2022-10-16T04:11:55;16.73;;;11.45;;
73684;SDS011;61985;51.070;14.064;2022-10-16T04:14:20;16.15;;;10.98;;
73684;SDS011;61985;51.070;14.064;2022-10-16T04:16:45;14.40;;;10.20;;
73684;SDS011;61985;51.070;14.064;2022-10-16T04:19:11;16.58;;;11.30;;
73684;SDS011;61985;51.070;14.064;2022-10-16T04:21:36;14.35;;;9.88;;
73684;SDS011;61985;51.070;14.064;2022-10-16T04:24:02;14.20;;;10.52;;
73684;SDS011;61985;51.070;14.064;2022-10-16T04:26:27;13.88;;;10.68;;
73684;SDS011;61985;51.070;14.064;2022-10-16T04:28:53;14.27;;;10.15;;
73684;SDS011;61985;51.070;14.064;2022-10-16T04:31:19;13.13;;;9.32;;
73684;SDS011;61985;51.070;14.064;2022-10-16T04:33:44;13.80;;;9.75;;
73684;SDS011;61985;51.070;14.064;2022-10-16T04:36:10;14.77;;;10.20;;
73684;SDS011;61985;51.070;14.064;2022-10-16T04:38:35;14.52;;;10.10;;
73684;SDS011;61985;51.070;14.064;2022-10-16T04:41:02;13.40;;;9.43;;
73684;SDS011;61985;51.070;14.064;2022-10-16T04:43:28;13.45;;;10.10;;
73684;SDS011;61985;51.070;14.064;2022-10-16T04:45:53;15.52;;;10.52;;
73684;SDS011;61985;51.070;14.064;2022-10-16T04:48:19;13.27;;;9.25;;
73684;SDS011;61985;51.070;14.064;2022-10-16T04:50:45;15.50;;;10.38;;
73684;SDS011;61985;51.070;14.064;2022-10-16T04:53:10;14.52;;;10.50;;
73684;SDS011;61985;51.070;14.064;2022-10-16T04:55:36;16.13;;;11.05;;
73684;SDS011;61985;51.070;14.064;2022-10-16T04:58:02;17.40;;;11.60;;
73684;SDS011;61985;51.070;14.064;2022-10-16T05:00:28;15.13;;;10.68;;
73684;SDS011;61985;51.070;14.064;2022-10-16T05:02:53;16.23;;;11.57;;
73684;SDS011;61985;51.070;14.064;2022-10-16T05:05:18;16.77;;;11.07;;
73684;SDS011;61985;51.070;14.064;2022-10-16T05:07:45;18.25;;;11.70;;
73684;SDS011;61985;51.070;14.064;2022-10-16T05:10:11;16.48;;;10.63;;
73684;SDS011;61985;51.070;14.064;2022-10-16T05:12:36;15.15;;;10.77;;
73684;SDS011;61985;51.070;14.064;2022-10-16T05:15:01;16.70;;;11.75;;
73684;SDS011;61985;51.070;14.064;2022-10-16T05:17:27;16.30;;;12.02;;
73684;SDS011;61985;51.070;14.064;2022-10-16T05:19:52;18.63;;;12.70;;
73684;SDS011;61985;51.070;14.064;2022-10-16T05:22:18;19.35;;;13.70;;
73684;SDS011;61985;51.070;14.064;2022-10-16T05:24:43;22.20;;;13.00;;
73684;SDS011;61985;51.070;14.064;2022-10-16T05:27:09;19.50;;;13.75;;
73684;SDS011;61985;51.070;14.064;2022-10-16T05:29:36;23.00;;;14.27;;
73684;SDS011;61985;51.070;14.064;2022-10-16T05:32:01;18.17;;;13.35;;
73684;SDS011;61985;51.070;14.064;2022-10-16T05:34:27;21.55;;;13.55;;
73684;SDS011;61985;51.070;14.064;2022-10-16T05:36:52;19.40;;;12.90;;
73684;SDS011;61985;51.070;14.064;2022-10-16T05:39:18;19.05;;;14.00;;
73684;SDS011;61985;51.070;14.064;2022-10-16T05:41:43;19.45;;;12.93;;
73684;SDS011;61985;51.070;14.064;2022-10-16T05:44:09;15.27;;;11.50;;
73684;SDS011;61985;51.070;14.064;2022-10-16T05:46:35;16.17;;;11.82;;
73684;SDS011;61985;51.070;14.064;2022-10-16T05:49:01;18.88;;;12.52;;
73684;SDS011;61985;51.070;14.064;2022-10-16T05:51:26;15.55;;;11.98;;
73684;SDS011;61985;51.070;14.064;2022-10-16T05:53:52;24.08;;;11.48;;
73684;SDS011;61985;51.070;14.064;2022-10-16T05:56:17;18.33;;;10.73;;
73684;SDS011;61985;51.070;14.064;2022-10-16T05:58:43;16.10;;;11.02;;
73684;SDS011;61985;51.070;14.064;2022-10-16T06:01:15;17.10;;;10.90;;
73684;SDS011;61985;51.070;14.064;2022-10-16T06:03:42;16.25;;;11.07;;
73684;SDS011;61985;51.070;14.064;2022-10-16T06:06:12;15.63;;;10.25;;
73684;SDS011;61985;51.070;14.064;2022-10-16T06:08:39;14.55;;;9.88;;
73684;SDS011;61985;51.070;14.064;2022-10-16T06:11:07;12.80;;;9.60;;
73684;SDS011;61985;51.070;14.064;2022-10-16T06:13:34;12.80;;;9.60;;
73684;SDS011;61985;51.070;14.064;2022-10-16T06:16:00;16.25;;;9.00;;
73684;SDS011;61985;51.070;14.064;2022-10-16T06:18:26;11.45;;;8.48;;
73684;SDS011;61985;51.070;14.064;2022-10-16T06:20:53;12.18;;;8.40;;
73684;SDS011;61985;51.070;14.064;2022-10-16T06:23:19;13.32;;;8.18;;
73684;SDS011;61985;51.070;14.064;2022-10-16T06:25:44;11.07;;;7.93;;
73684;SDS011;61985;51.070;14.064;2022-10-16T06:28:10;15.07;;;8.93;;
73684;SDS011;61985;51.070;14.064;2022-10-16T06:30:35;12.52;;;8.60;;
73684;SDS011;61985;51.070;14.064;2022-10-16T06:33:01;13.75;;;8.32;;
73684;SDS011;61985;51.070;14.064;2022-10-16T06:35:26;11.52;;;8.35;;
73684;SDS011;61985;51.070;14.064;2022-10-16T06:37:54;10.18;;;7.57;;
73684;SDS011;61985;51.070;14.064;2022-10-16T06:40:20;10.95;;;7.85;;
73684;SDS011;61985;51.070;14.064;2022-10-16T06:42:45;11.35;;;8.25;;
73684;SDS011;61985;51.070;14.064;2022-10-16T06:45:11;10.52;;;7.38;;
73684;SDS011;61985;51.070;14.064;2022-10-16T06:47:36;10.82;;;7.43;;
73684;SDS011;61985;51.070;14.064;2022-10-16T06:50:02;10.95;;;7.90;;
73684;SDS011;61985;51.070;14.064;2022-10-16T06:52:28;13.93;;;8.02;;
73684;SDS011;61985;51.070;14.064;2022-10-16T06:54:54;11.93;;;7.43;;
73684;SDS011;61985;51.070;14.064;2022-10-16T06:57:19;9.50;;;6.88;;
73684;SDS011;61985;51.070;14.064;2022-10-16T06:59:44;13.32;;;8.20;;
73684;SDS011;61985;51.070;14.064;2022-10-16T07:02:10;13.05;;;7.85;;
73684;SDS011;61985;51.070;14.064;2022-10-16T07:04:36;13.10;;;7.78;;
73684;SDS011;61985;51.070;14.064;2022-10-16T07:07:01;9.77;;;7.28;;
73684;SDS011;61985;51.070;14.064;2022-10-16T07:09:27;10.52;;;8.05;;
73684;SDS011;61985;51.070;14.064;2022-10-16T07:11:52;10.75;;;7.97;;
73684;SDS011;61985;51.070;14.064;2022-10-16T07:16:54;12.65;;;7.88;;
73684;SDS011;61985;51.070;14.064;2022-10-16T07:19:20;11.25;;;7.93;;
73684;SDS011;61985;51.070;14.064;2022-10-16T07:21:45;10.60;;;7.43;;
73684;SDS011;61985;51.070;14.064;2022-10-16T07:24:12;10.95;;;7.65;;
73684;SDS011;61985;51.070;14.064;2022-10-16T07:26:39;10.90;;;7.90;;
73684;SDS011;61985;51.070;14.064;2022-10-16T07:29:16;11.55;;;7.80;;
73684;SDS011;61985;51.070;14.064;2022-10-16T07:31:44;10.73;;;7.50;;
73684;SDS011;61985;51.070;14.064;2022-10-16T07:34:10;10.02;;;7.47;;
73684;SDS011;61985;51.070;14.064;2022-10-16T07:36:37;9.18;;;7.00;;
73684;SDS011;61985;51.070;14.064;2022-10-16T07:39:03;10.73;;;7.55;;
73684;SDS011;61985;51.070;14.064;2022-10-16T07:41:29;10.55;;;7.85;;
73684;SDS011;61985;51.070;14.064;2022-10-16T07:43:55;13.40;;;10.23;;
73684;SDS011;61985;51.070;14.064;2022-10-16T07:46:25;12.73;;;9.43;;
73684;SDS011;61985;51.070;14.064;2022-10-16T07:48:51;14.55;;;8.40;;
73684;SDS011;61985;51.070;14.064;2022-10-16T07:51:20;11.80;;;8.57;;
73684;SDS011;61985;51.070;14.064;2022-10-16T07:53:48;11.88;;;8.80;;
73684;SDS011;61985;51.070;14.064;2022-10-16T07:56:14;15.25;;;8.25;;
73684;SDS011;61985;51.070;14.064;2022-10-16T07:58:44;12.20;;;9.23;;
73684;SDS011;61985;51.070;14.064;2022-10-16T08:01:10;13.35;;;9.48;;
73684;SDS011;61985;51.070;14.064;2022-10-16T08:03:38;12.05;;;9.20;;
73684;SDS011;61985;51.070;14.064;2022-10-16T08:06:06;11.70;;;8.93;;
73684;SDS011;61985;51.070;14.064;2022-10-16T08:08:32;11.15;;;8.80;;
73684;SDS011;61985;51.070;14.064;2022-10-16T08:10:57;11.45;;;8.63;;
73684;SDS011;61985;51.070;14.064;2022-10-16T08:28:57;10.73;;;8.48;;
73684;SDS011;61985;51.070;14.064;2022-10-16T08:31:23;12.35;;;8.85;;
73684;SDS011;61985;51.070;14.064;2022-10-16T08:33:48;11.25;;;8.85;;
73684;SDS011;61985;51.070;14.064;2022-10-16T08:36:14;10.10;;;8.60;;
73684;SDS011;61985;51.070;14.064;2022-10-16T08:38:41;12.98;;;9.20;;
73684;SDS011;61985;51.070;14.064;2022-10-16T08:43:55;11.50;;;9.53;;
73684;SDS011;61985;51.070;14.064;2022-10-16T08:46:52;12.60;;;9.10;;
73684;SDS011;61985;51.070;14.064;2022-10-16T08:49:18;11.98;;;9.65;;
73684;SDS011;61985;51.070;14.064;2022-10-16T08:51:43;15.30;;;10.20;;
73684;SDS011;61985;51.070;14.064;2022-10-16T08:56:36;14.48;;;11.00;;
73684;SDS011;61985;51.070;14.064;2022-10-16T08:59:02;63.53;;;14.27;;
73684;SDS011;61985;51.070;14.064;2022-10-16T09:12:35;14.63;;;10.57;;
73684;SDS011;61985;51.070;14.064;2022-10-16T09:20:48;11.93;;;9.07;;
73684;SDS011;61985;51.070;14.064;2022-10-16T09:23:26;12.77;;;9.80;;
73684;SDS011;61985;51.070;14.064;2022-10-16T09:25:54;11.70;;;8.43;;
73684;SDS011;61985;51.070;14.064;2022-10-16T09:28:30;13.50;;;8.73;;
73684;SDS011;61985;51.070;14.064;2022-10-16T09:30:58;9.77;;;7.22;;
73684;SDS011;61985;51.070;14.064;2022-10-16T09:33:29;11.32;;;7.78;;
73684;SDS011;61985;51.070;14.064;2022-10-16T09:35:58;11.05;;;7.60;;
73684;SDS011;61985;51.070;14.064;2022-10-16T09:38:29;9.10;;;6.55;;
73684;SDS011;61985;51.070;14.064;2022-10-16T09:40:56;9.20;;;6.22;;
73684;SDS011;61985;51.070;14.064;2022-10-16T09:43:24;8.27;;;6.15;;
73684;SDS011;61985;51.070;14.064;2022-10-16T09:46:00;9.05;;;6.03;;
73684;SDS011;61985;51.070;14.064;2022-10-16T09:50:59;9.52;;;5.60;;
73684;SDS011;61985;51.070;14.064;2022-10-16T10:46:00;5.95;;;3.97;;
73684;SDS011;61985;51.070;14.064;2022-10-16T10:54:13;7.05;;;5.00;;
73684;SDS011;61985;51.070;14.064;2022-10-16T10:56:44;6.68;;;4.72;;
73684;SDS011;61985;51.070;14.064;2022-10-16T11:05:00;6.63;;;4.68;;
73684;SDS011;61985;51.070;14.064;2022-10-16T11:10:52;6.13;;;4.22;;
73684;SDS011;61985;51.070;14.064;2022-10-16T11:26:24;6.90;;;4.72;;
73684;SDS011;61985;51.070;14.064;2022-10-16T11:28:54;7.22;;;5.63;;
73684;SDS011;61985;51.070;14.064;2022-10-16T11:34:12;9.35;;;5.63;;
73684;SDS011;61985;51.070;14.064;2022-10-16T11:39:36;7.30;;;5.38;;
73684;SDS011;61985;51.070;14.064;2022-10-16T11:42:11;10.23;;;5.82;;
73684;SDS011;61985;51.070;14.064;2022-10-16T11:44:55;8.35;;;5.60;;
73684;SDS011;61985;51.070;14.064;2022-10-16T11:50:05;7.03;;;5.70;;
73684;SDS011;61985;51.070;14.064;2022-10-16T11:55:28;10.57;;;7.30;;
73684;SDS011;61985;51.070;14.064;2022-10-16T11:58:06;7.30;;;5.82;;
73684;SDS011;61985;51.070;14.064;2022-10-16T12:08:26;5.80;;;4.82;;
73684;SDS011;61985;51.070;14.064;2022-10-16T12:11:24;5.55;;;4.40;;
73684;SDS011;61985;51.070;14.064;2022-10-16T12:19:12;5.40;;;4.57;;
73684;SDS011;61985;51.070;14.064;2022-10-16T12:21:40;6.45;;;4.32;;
73684;SDS011;61985;51.070;14.064;2022-10-16T12:32:25;4.97;;;3.67;;
73684;SDS011;61985;51.070;14.064;2022-10-16T12:34:58;4.40;;;3.47;;
73684;SDS011;61985;51.070;14.064;2022-10-16T12:42:36;5.25;;;3.60;;
73684;SDS011;61985;51.070;14.064;2022-10-16T12:45:12;5.03;;;3.70;;
73684;SDS011;61985;51.070;14.064;2022-10-16T12:47:50;6.50;;;4.40;;
73684;SDS011;61985;51.070;14.064;2022-10-16T12:52:53;6.38;;;4.18;;
73684;SDS011;61985;51.070;14.064;2022-10-16T12:55:21;4.70;;;4.00;;
73684;SDS011;61985;51.070;14.064;2022-10-16T14:33:35;6.32;;;1.42;;
73684;SDS011;61985;51.070;14.064;2022-10-16T14:38:35;11.98;;;2.25;;
73684;SDS011;61985;51.070;14.064;2022-10-16T14:41:02;15.45;;;8.25;;
73684;SDS011;61985;51.070;14.064;2022-10-16T14:45:57;14.38;;;5.38;;
73684;SDS011;61985;51.070;14.064;2022-10-16T14:48:22;9.07;;;4.22;;
73684;SDS011;61985;51.070;14.064;2022-10-16T14:50:49;11.10;;;4.53;;
73684;SDS011;61985;51.070;14.064;2022-10-16T14:53:15;5.70;;;2.10;;
73684;SDS011;61985;51.070;14.064;2022-10-16T14:55:41;5.22;;;1.80;;
73684;SDS011;61985;51.070;14.064;2022-10-16T14:58:17;5.10;;;2.10;;
73684;SDS011;61985;51.070;14.064;2022-10-16T15:00:45;3.85;;;1.50;;
73684;SDS011;61985;51.070;14.064;2022-10-16T15:03:10;4.03;;;2.03;;
73684;SDS011;61985;51.070;14.064;2022-10-16T15:05:36;6.43;;;2.85;;
73684;SDS011;61985;51.070;14.064;2022-10-16T15:08:01;2.17;;;1.40;;
73684;SDS011;61985;51.070;14.064;2022-10-16T15:10:27;3.30;;;1.63;;
73684;SDS011;61985;51.070;14.064;2022-10-16T15:12:54;2.88;;;1.73;;
73684;SDS011;61985;51.070;14.064;2022-10-16T15:15:24;6.40;;;2.67;;
73684;SDS011;61985;51.070;14.064;2022-10-16T15:17:56;5.05;;;2.47;;
73684;SDS011;61985;51.070;14.064;2022-10-16T15:20:24;8.25;;;4.22;;
73684;SDS011;61985;51.070;14.064;2022-10-16T15:22:52;13.93;;;4.65;;
73684;SDS011;61985;51.070;14.064;2022-10-16T15:27:57;30.23;;;6.35;;
73684;SDS011;61985;51.070;14.064;2022-10-16T15:30:23;12.32;;;4.05;;
73684;SDS011;61985;51.070;14.064;2022-10-16T15:32:49;8.13;;;2.88;;
73684;SDS011;61985;51.070;14.064;2022-10-16T15:35:14;18.67;;;5.50;;
73684;SDS011;61985;51.070;14.064;2022-10-16T15:37:50;39.08;;;9.20;;
73684;SDS011;61985;51.070;14.064;2022-10-16T15:40:16;19.92;;;6.53;;
73684;SDS011;61985;51.070;14.064;2022-10-16T15:42:43;29.10;;;9.32;;
73684;SDS011;61985;51.070;14.064;2022-10-16T15:45:09;23.35;;;7.85;;
73684;SDS011;61985;51.070;14.064;2022-10-16T15:47:35;13.88;;;5.22;;
73684;SDS011;61985;51.070;14.064;2022-10-16T15:50:01;10.25;;;4.25;;
73684;SDS011;61985;51.070;14.064;2022-10-16T15:52:26;9.07;;;4.00;;
73684;SDS011;61985;51.070;14.064;2022-10-16T15:54:53;13.95;;;4.90;;
73684;SDS011;61985;51.070;14.064;2022-10-16T15:57:19;10.27;;;4.03;;
73684;SDS011;61985;51.070;14.064;2022-10-16T15:59:44;5.80;;;3.53;;
73684;SDS011;61985;51.070;14.064;2022-10-16T16:02:10;6.65;;;3.70;;
73684;SDS011;61985;51.070;14.064;2022-10-16T16:04:35;5.13;;;3.20;;
73684;SDS011;61985;51.070;14.064;2022-10-16T16:07:00;10.90;;;4.53;;
73684;SDS011;61985;51.070;14.064;2022-10-16T16:09:28;8.52;;;4.38;;
73684;SDS011;61985;51.070;14.064;2022-10-16T16:11:54;6.68;;;4.40;;
73684;SDS011;61985;51.070;14.064;2022-10-16T16:14:19;7.68;;;4.85;;
73684;SDS011;61985;51.070;14.064;2022-10-16T16:16:44;11.18;;;6.03;;
73684;SDS011;61985;51.070;14.064;2022-10-16T16:19:10;14.48;;;7.70;;
73684;SDS011;61985;51.070;14.064;2022-10-16T16:21:35;12.80;;;7.72;;
73684;SDS011;61985;51.070;14.064;2022-10-16T16:24:00;11.68;;;5.90;;
73684;SDS011;61985;51.070;14.064;2022-10-16T16:26:32;10.68;;;6.90;;
73684;SDS011;61985;51.070;14.064;2022-10-16T16:29:01;9.18;;;5.85;;
73684;SDS011;61985;51.070;14.064;2022-10-16T16:31:29;7.40;;;5.20;;
73684;SDS011;61985;51.070;14.064;2022-10-16T16:33:55;9.73;;;5.60;;
73684;SDS011;61985;51.070;14.064;2022-10-16T16:36:22;7.70;;;4.85;;
73684;SDS011;61985;51.070;14.064;2022-10-16T16:38:47;11.18;;;5.97;;
73684;SDS011;61985;51.070;14.064;2022-10-16T16:41:14;9.00;;;5.13;;
73684;SDS011;61985;51.070;14.064;2022-10-16T16:43:50;11.60;;;8.07;;
73684;SDS011;61985;51.070;14.064;2022-10-16T16:46:16;12.15;;;7.05;;
73684;SDS011;61985;51.070;14.064;2022-10-16T16:48:42;9.10;;;5.90;;
73684;SDS011;61985;51.070;14.064;2022-10-16T16:51:12;8.50;;;4.80;;
73684;SDS011;61985;51.070;14.064;2022-10-16T16:53:41;9.20;;;5.20;;
73684;SDS011;61985;51.070;14.064;2022-10-16T16:56:07;9.93;;;5.18;;
73684;SDS011;61985;51.070;14.064;2022-10-16T16:58:32;14.65;;;6.07;;
73684;SDS011;61985;51.070;14.064;2022-10-16T17:00:59;8.55;;;5.75;;
73684;SDS011;61985;51.070;14.064;2022-10-16T17:03:27;8.88;;;4.88;;
73684;SDS011;61985;51.070;14.064;2022-10-16T17:06:00;7.70;;;4.57;;
73684;SDS011;61985;51.070;14.064;2022-10-16T17:08:27;6.20;;;4.30;;
73684;SDS011;61985;51.070;14.064;2022-10-16T17:10:53;5.38;;;3.70;;
73684;SDS011;61985;51.070;14.064;2022-10-16T17:13:23;9.65;;;4.72;;
73684;SDS011;61985;51.070;14.064;2022-10-16T17:15:50;7.70;;;4.57;;
73684;SDS011;61985;51.070;14.064;2022-10-16T17:18:16;8.45;;;4.53;;
73684;SDS011;61985;51.070;14.064;2022-10-16T17:20:42;4.85;;;3.38;;
73684;SDS011;61985;51.070;14.064;2022-10-16T17:23:08;7.40;;;4.25;;
73684;SDS011;61985;51.070;14.064;2022-10-16T17:25:36;10.77;;;6.07;;
73684;SDS011;61985;51.070;14.064;2022-10-16T17:28:04;8.05;;;4.57;;
73684;SDS011;61985;51.070;14.064;2022-10-16T17:30:30;6.25;;;4.20;;
73684;SDS011;61985;51.070;14.064;2022-10-16T17:32:58;6.22;;;3.80;;
73684;SDS011;61985;51.070;14.064;2022-10-16T17:35:23;5.55;;;3.90;;
73684;SDS011;61985;51.070;14.064;2022-10-16T17:37:50;6.72;;;4.57;;
73684;SDS011;61985;51.070;14.064;2022-10-16T17:40:17;9.43;;;4.72;;
73684;SDS011;61985;51.070;14.064;2022-10-16T17:42:43;10.50;;;5.68;;
73684;SDS011;61985;51.070;14.064;2022-10-16T17:45:08;9.10;;;6.00;;
73684;SDS011;61985;51.070;14.064;2022-10-16T17:47:33;8.98;;;5.40;;
73684;SDS011;61985;51.070;14.064;2022-10-16T17:49:59;9.20;;;5.57;;
73684;SDS011;61985;51.070;14.064;2022-10-16T17:52:24;10.80;;;6.10;;
73684;SDS011;61985;51.070;14.064;2022-10-16T17:54:50;10.07;;;5.97;;
73684;SDS011;61985;51.070;14.064;2022-10-16T17:57:18;13.13;;;6.00;;
73684;SDS011;61985;51.070;14.064;2022-10-16T17:59:44;14.40;;;7.03;;
73684;SDS011;61985;51.070;14.064;2022-10-16T18:02:09;10.93;;;7.50;;
73684;SDS011;61985;51.070;14.064;2022-10-16T18:04:35;11.70;;;7.85;;
73684;SDS011;61985;51.070;14.064;2022-10-16T18:07:01;12.85;;;8.65;;
73684;SDS011;61985;51.070;14.064;2022-10-16T18:09:27;11.30;;;8.02;;
73684;SDS011;61985;51.070;14.064;2022-10-16T18:11:53;12.88;;;7.90;;
73684;SDS011;61985;51.070;14.064;2022-10-16T18:14:24;11.43;;;7.80;;
73684;SDS011;61985;51.070;14.064;2022-10-16T18:16:51;9.57;;;6.40;;
73684;SDS011;61985;51.070;14.064;2022-10-16T18:19:17;8.98;;;6.00;;
73684;SDS011;61985;51.070;14.064;2022-10-16T18:21:43;17.10;;;6.50;;
73684;SDS011;61985;51.070;14.064;2022-10-16T18:24:09;8.35;;;5.90;;
73684;SDS011;61985;51.070;14.064;2022-10-16T18:26:35;9.82;;;6.25;;
73684;SDS011;61985;51.070;14.064;2022-10-16T18:29:01;9.05;;;5.60;;
73684;SDS011;61985;51.070;14.064;2022-10-16T18:31:27;11.68;;;5.05;;
73684;SDS011;61985;51.070;14.064;2022-10-16T18:33:54;8.65;;;5.07;;
73684;SDS011;61985;51.070;14.064;2022-10-16T18:36:21;7.60;;;5.00;;
73684;SDS011;61985;51.070;14.064;2022-10-16T18:38:53;7.32;;;4.72;;
73684;SDS011;61985;51.070;14.064;2022-10-16T18:41:19;8.38;;;4.53;;
73684;SDS011;61985;51.070;14.064;2022-10-16T18:43:45;6.45;;;3.88;;
73684;SDS011;61985;51.070;14.064;2022-10-16T18:46:12;7.55;;;4.50;;
73684;SDS011;61985;51.070;14.064;2022-10-16T18:48:42;8.93;;;5.38;;
73684;SDS011;61985;51.070;14.064;2022-10-16T18:51:16;8.88;;;4.47;;
73684;SDS011;61985;51.070;14.064;2022-10-16T18:53:53;10.18;;;5.05;;
73684;SDS011;61985;51.070;14.064;2022-10-16T18:56:21;7.57;;;4.78;;
73684;SDS011;61985;51.070;14.064;2022-10-16T18:58:48;7.07;;;4.82;;
73684;SDS011;61985;51.070;14.064;2022-10-16T19:01:17;6.93;;;4.57;;
73684;SDS011;61985;51.070;14.064;2022-10-16T19:03:51;7.22;;;4.95;;
73684;SDS011;61985;51.070;14.064;2022-10-16T19:06:18;6.97;;;4.78;;